Time;durP1;ratioP1;P1;durP2;ratioP2;P2;SDS_P1;SDS_P2;PMS_P1;PMS_P2;Temp;Humidity;BMP_temperature;BMP_pressure;BME280_temperature;BME280_humidity;BME280_pressure;Samples;Min_cycle;Max_cycle;Signal;HPM_P1;HPM_P2
2024/02/21 00:00:11;;;;;;;9.05;4.60;;;;;;;;;;607164;23;1276;-73
2024/02/21 00:00:27;;;;;;;11.63;5.10;;;;;;;;;;606535;23;1311;-75
2024/02/21 00:00:42;;;;;;;12.13;5.60;;;;;;;;;;607412;23;1083;-73
2024/02/21 00:00:58;;;;;;;10.77;5.65;;;;;;;;;;606596;23;1218;-73
2024/02/21 00:01:17;;;;;;;9.77;5.30;;;;;;;;;;607459;23;1185;-73
2024/02/21 00:01:32;;;;;;;11.90;5.43;;;;;;;;;;607078;23;1324;-73
2024/02/21 00:01:48;;;;;;;11.93;5.15;;;;;;;;;;610710;23;1272;-73
2024/02/21 00:02:04;;;;;;;10.40;4.90;;;;;;;;;;612013;23;1232;-73
2024/02/21 00:02:19;;;;;;;9.88;5.00;;;;;;;;;;611851;23;930;-73
2024/02/21 00:02:35;;;;;;;10.70;5.00;;;;;;;;;;609692;23;824;-73
2024/02/21 00:02:50;;;;;;;11.38;5.05;;;;;;;;;;606144;23;1224;-72
2024/02/21 00:03:06;;;;;;;10.10;5.03;;;;;;;;;;604989;23;1140;-73
2024/02/21 00:03:21;;;;;;;9.33;5.03;;;;;;;;;;605698;23;1239;-72
2024/02/21 00:03:37;;;;;;;9.75;4.95;;;;;;;;;;608198;23;1195;-72
2024/02/21 00:03:52;;;;;;;8.65;4.72;;;;;;;;;;608317;23;1403;-72
2024/02/21 00:04:08;;;;;;;8.53;4.97;;;;;;;;;;607088;23;1275;-72
2024/02/21 00:04:24;;;;;;;10.98;5.18;;;;;;;;;;609738;23;1323;-72
2024/02/21 00:04:40;;;;;;;11.25;5.13;;;;;;;;;;611560;23;803;-72
2024/02/21 00:04:55;;;;;;;10.07;5.00;;;;;;;;;;613173;23;1274;-73
2024/02/21 00:05:11;;;;;;;10.10;4.68;;;;;;;;;;613344;23;934;-74
2024/02/21 00:05:26;;;;;;;13.00;5.13;;;;;;;;;;608834;23;1105;-73
2024/02/21 00:05:42;;;;;;;13.82;5.45;;;;;;;;;;608779;23;1295;-73
2024/02/21 00:05:57;;;;;;;11.57;5.17;;;;;;;;;;609030;23;1265;-72
2024/02/21 00:06:13;;;;;;;10.50;5.18;;;;;;;;;;610976;23;1116;-72
2024/02/21 00:06:28;;;;;;;10.77;5.10;;;;;;;;;;605837;23;1130;-72
2024/02/21 00:06:44;;;;;;;11.18;5.00;;;;;;;;;;609194;23;1180;-72
2024/02/21 00:06:59;;;;;;;9.63;4.90;;;;;;;;;;609247;23;1599;-72
2024/02/21 00:07:15;;;;;;;9.02;4.65;;;;;;;;;;607136;23;1232;-72
2024/02/21 00:07:30;;;;;;;9.47;4.80;;;;;;;;;;604587;23;1243;-72
2024/02/21 00:07:46;;;;;;;9.52;4.80;;;;;;;;;;604491;23;1267;-72
2024/02/21 00:08:03;;;;;;;10.93;4.90;;;;;;;;;;604267;23;1018;-73
2024/02/21 00:08:18;;;;;;;11.40;5.05;;;;;;;;;;604032;23;992;-73
2024/02/21 00:08:34;;;;;;;9.32;4.72;;;;;;;;;;605124;23;1249;-72
2024/02/21 00:08:49;;;;;;;9.03;4.53;;;;;;;;;;598120;23;1156;-72
2024/02/21 00:09:05;;;;;;;9.93;4.60;;;;;;;;;;604247;23;1145;-72
2024/02/21 00:09:20;;;;;;;9.83;4.90;;;;;;;;;;603497;23;1113;-73
2024/02/21 00:09:36;;;;;;;10.68;4.97;;;;;;;;;;605811;23;1187;-72
2024/02/21 00:09:51;;;;;;;12.33;5.20;;;;;;;;;;603322;23;1161;-72
2024/02/21 00:10:07;;;;;;;11.85;5.30;;;;;;;;;;603459;23;863;-72
2024/02/21 00:10:23;;;;;;;10.57;5.07;;;;;;;;;;606073;23;1198;-72
2024/02/21 00:10:38;;;;;;;10.07;4.95;;;;;;;;;;610100;23;1280;-73
2024/02/21 00:10:54;;;;;;;10.13;4.77;;;;;;;;;;605923;23;800;-73
2024/02/21 00:11:09;;;;;;;9.48;4.72;;;;;;;;;;604206;23;832;-72
2024/02/21 00:11:25;;;;;;;9.20;4.80;;;;;;;;;;604511;23;1266;-72
2024/02/21 00:11:41;;;;;;;10.00;4.78;;;;;;;;;;608448;23;871;-72
2024/02/21 00:11:58;;;;;;;10.73;5.15;;;;;;;;;;605591;23;1275;-72
2024/02/21 00:12:14;;;;;;;11.23;5.07;;;;;;;;;;607737;23;1347;-72
2024/02/21 00:12:29;;;;;;;11.95;5.00;;;;;;;;;;609017;23;1283;-72
2024/02/21 00:12:45;;;;;;;11.27;5.10;;;;;;;;;;609761;23;1194;-73
2024/02/21 00:13:01;;;;;;;10.10;4.82;;;;;;;;;;606273;23;1303;-74
2024/02/21 00:13:16;;;;;;;9.75;4.68;;;;;;;;;;606753;23;832;-73
2024/02/21 00:13:32;;;;;;;10.03;4.93;;;;;;;;;;607912;23;1224;-72
2024/02/21 00:13:48;;;;;;;10.50;4.90;;;;;;;;;;609195;23;1176;-73
2024/02/21 00:14:03;;;;;;;10.57;4.80;;;;;;;;;;609325;23;799;-72
2024/02/21 00:14:19;;;;;;;9.83;4.90;;;;;;;;;;604252;23;1366;-72
2024/02/21 00:14:35;;;;;;;9.25;4.78;;;;;;;;;;608132;23;1285;-73
2024/02/21 00:14:50;;;;;;;10.07;4.68;;;;;;;;;;605138;23;1296;-73
2024/02/21 00:15:06;;;;;;;9.07;4.70;;;;;;;;;;603179;23;1240;-72
2024/02/21 00:15:22;;;;;;;8.88;4.68;;;;;;;;;;602391;23;1128;-73
2024/02/21 00:15:37;;;;;;;9.07;4.82;;;;;;;;;;609230;23;1334;-72
2024/02/21 00:15:54;;;;;;;9.10;4.80;;;;;;;;;;610518;23;1976;-72
2024/02/21 00:16:11;;;;;;;8.60;4.55;;;;;;;;;;609342;23;1327;-72
2024/02/21 00:16:26;;;;;;;9.60;4.53;;;;;;;;;;606450;23;1342;-72
2024/02/21 00:16:42;;;;;;;10.67;5.00;;;;;;;;;;603286;23;1293;-73
2024/02/21 00:16:57;;;;;;;10.38;5.13;;;;;;;;;;599803;23;1245;-71
2024/02/21 00:17:13;;;;;;;10.00;4.87;;;;;;;;;;602661;23;1266;-72
2024/02/21 00:17:28;;;;;;;9.25;4.93;;;;;;;;;;604314;23;1381;-72
2024/02/21 00:17:44;;;;;;;9.30;5.03;;;;;;;;;;601231;23;1298;-73
2024/02/21 00:18:00;;;;;;;10.77;4.88;;;;;;;;;;603439;23;1683;-73
2024/02/21 00:18:15;;;;;;;10.85;4.88;;;;;;;;;;606971;23;1394;-72
2024/02/21 00:18:31;;;;;;;10.07;4.90;;;;;;;;;;607687;23;1137;-72
2024/02/21 00:18:46;;;;;;;10.25;5.00;;;;;;;;;;602792;23;1327;-73
2024/02/21 00:19:02;;;;;;;9.30;5.00;;;;;;;;;;605754;23;1267;-72
2024/02/21 00:19:17;;;;;;;9.73;5.13;;;;;;;;;;608398;23;1191;-72
2024/02/21 00:19:33;;;;;;;9.87;4.90;;;;;;;;;;613279;23;1013;-73
2024/02/21 00:19:48;;;;;;;9.93;4.63;;;;;;;;;;612431;23;1415;-72
2024/02/21 00:20:04;;;;;;;11.03;5.07;;;;;;;;;;610483;23;1206;-73
2024/02/21 00:20:20;;;;;;;11.82;5.10;;;;;;;;;;608964;23;922;-73
2024/02/21 00:20:36;;;;;;;10.93;4.70;;;;;;;;;;611680;23;1214;-72
2024/02/21 00:20:52;;;;;;;9.82;4.75;;;;;;;;;;608766;23;1217;-73
2024/02/21 00:21:08;;;;;;;10.07;5.05;;;;;;;;;;605378;23;1292;-72
2024/02/21 00:21:23;;;;;;;10.10;5.00;;;;;;;;;;603108;23;1184;-72
2024/02/21 00:21:39;;;;;;;9.43;4.70;;;;;;;;;;604403;23;1133;-72
2024/02/21 00:21:54;;;;;;;9.38;4.53;;;;;;;;;;605532;23;1168;-73
2024/02/21 00:22:10;;;;;;;10.02;4.68;;;;;;;;;;605880;23;1202;-73
2024/02/21 00:22:28;;;;;;;8.90;4.53;;;;;;;;;;609184;23;1258;-73
2024/02/21 00:22:44;;;;;;;9.23;4.78;;;;;;;;;;610417;23;777;-73
2024/02/21 00:23:00;;;;;;;9.67;5.20;;;;;;;;;;605914;23;1219;-72
2024/02/21 00:23:15;;;;;;;10.25;5.22;;;;;;;;;;607405;23;888;-73
2024/02/21 00:23:31;;;;;;;11.13;4.97;;;;;;;;;;604915;23;1240;-72
2024/02/21 00:23:46;;;;;;;10.50;4.90;;;;;;;;;;603439;23;1208;-73
2024/02/21 00:24:08;;;;;;;10.52;5.15;;;;;;;;;;603728;23;844;-72
2024/02/21 00:24:24;;;;;;;12.18;5.20;;;;;;;;;;603513;23;1268;-73
2024/02/21 00:24:39;;;;;;;10.10;5.00;;;;;;;;;;604089;23;836;-73
2024/02/21 00:24:55;;;;;;;9.73;4.60;;;;;;;;;;604801;23;1309;-72
2024/02/21 00:25:11;;;;;;;10.87;4.67;;;;;;;;;;606478;23;808;-73
2024/02/21 00:25:26;;;;;;;9.75;4.70;;;;;;;;;;607995;23;1034;-73
2024/02/21 00:25:42;;;;;;;8.48;4.57;;;;;;;;;;608367;23;1212;-72
2024/02/21 00:25:57;;;;;;;8.50;4.67;;;;;;;;;;604826;23;1166;-72
2024/02/21 00:26:14;;;;;;;9.10;4.60;;;;;;;;;;603441;23;895;-72
2024/02/21 00:26:29;;;;;;;9.57;4.63;;;;;;;;;;603414;23;1201;-73
2024/02/21 00:26:45;;;;;;;9.82;4.85;;;;;;;;;;602087;23;1042;-72
2024/02/21 00:27:01;;;;;;;10.25;5.10;;;;;;;;;;599261;23;1280;-74
2024/02/21 00:27:16;;;;;;;9.83;5.03;;;;;;;;;;599053;23;1173;-72
2024/02/21 00:27:32;;;;;;;9.50;5.03;;;;;;;;;;604553;23;1365;-72
2024/02/21 00:27:47;;;;;;;11.13;5.53;;;;;;;;;;603004;23;1075;-72
2024/02/21 00:28:03;;;;;;;11.30;5.38;;;;;;;;;;602142;23;1216;-74
2024/02/21 00:28:19;;;;;;;9.85;4.60;;;;;;;;;;603537;23;778;-72
2024/02/21 00:28:35;;;;;;;9.20;4.60;;;;;;;;;;607334;23;883;-72
2024/02/21 00:28:50;;;;;;;9.43;5.10;;;;;;;;;;606689;23;1259;-73
2024/02/21 00:29:06;;;;;;;8.95;5.07;;;;;;;;;;606236;23;1227;-72
2024/02/21 00:29:21;;;;;;;8.40;4.60;;;;;;;;;;608762;23;1267;-72
2024/02/21 00:29:37;;;;;;;9.02;4.65;;;;;;;;;;611200;23;1241;-73
2024/02/21 00:29:53;;;;;;;9.80;4.77;;;;;;;;;;606679;23;1296;-73
2024/02/21 00:30:09;;;;;;;10.82;5.03;;;;;;;;;;605230;23;1224;-73
2024/02/21 00:30:24;;;;;;;10.73;5.03;;;;;;;;;;599705;23;1410;-73
2024/02/21 00:30:40;;;;;;;9.65;4.75;;;;;;;;;;604613;23;1153;-73
2024/02/21 00:30:55;;;;;;;7.93;4.40;;;;;;;;;;602194;23;1156;-73
2024/02/21 00:31:11;;;;;;;8.65;4.82;;;;;;;;;;601975;23;753;-73
2024/02/21 00:31:26;;;;;;;9.17;4.97;;;;;;;;;;608469;23;1210;-72
2024/02/21 00:31:42;;;;;;;8.65;4.53;;;;;;;;;;608294;23;1105;-72
2024/02/21 00:31:57;;;;;;;8.93;4.50;;;;;;;;;;612238;23;1396;-73
2024/02/21 00:32:13;;;;;;;8.77;4.60;;;;;;;;;;611363;23;1057;-72
2024/02/21 00:32:28;;;;;;;9.00;4.50;;;;;;;;;;611981;23;1129;-72
2024/02/21 00:32:44;;;;;;;8.75;4.55;;;;;;;;;;612202;23;1124;-73
2024/02/21 00:32:59;;;;;;;8.87;4.53;;;;;;;;;;608634;23;1274;-73
2024/02/21 00:33:15;;;;;;;9.85;4.70;;;;;;;;;;608546;23;1390;-72
2024/02/21 00:33:31;;;;;;;10.15;5.00;;;;;;;;;;606612;23;1221;-73
2024/02/21 00:33:46;;;;;;;9.73;4.57;;;;;;;;;;606583;23;1153;-72
2024/02/21 00:34:02;;;;;;;8.80;4.30;;;;;;;;;;605969;23;1048;-72
2024/02/21 00:34:17;;;;;;;9.57;4.40;;;;;;;;;;602813;23;1012;-72
2024/02/21 00:34:33;;;;;;;9.70;4.63;;;;;;;;;;605330;23;950;-73
2024/02/21 00:34:49;;;;;;;8.27;4.80;;;;;;;;;;604060;23;789;-72
2024/02/21 00:35:04;;;;;;;9.53;4.87;;;;;;;;;;603569;23;1302;-72
2024/02/21 00:35:20;;;;;;;9.88;4.97;;;;;;;;;;603167;23;879;-73
2024/02/21 00:35:36;;;;;;;9.32;4.88;;;;;;;;;;602566;23;1201;-73
2024/02/21 00:35:51;;;;;;;9.10;4.80;;;;;;;;;;604598;23;1967;-73
2024/02/21 00:36:07;;;;;;;9.20;4.80;;;;;;;;;;605943;23;1177;-73
2024/02/21 00:36:22;;;;;;;9.07;4.60;;;;;;;;;;604810;23;1165;-72
2024/02/21 00:36:38;;;;;;;8.50;4.53;;;;;;;;;;604168;23;1319;-72
2024/02/21 00:36:54;;;;;;;9.05;4.85;;;;;;;;;;603340;23;1264;-73
2024/02/21 00:37:09;;;;;;;9.37;4.80;;;;;;;;;;602847;23;1190;-72
2024/02/21 00:37:25;;;;;;;7.97;4.50;;;;;;;;;;603935;23;784;-72
2024/02/21 00:37:40;;;;;;;7.23;4.60;;;;;;;;;;604707;23;1288;-73
2024/02/21 00:37:57;;;;;;;7.88;4.72;;;;;;;;;;606650;23;1128;-73
2024/02/21 00:38:12;;;;;;;9.45;4.72;;;;;;;;;;606502;23;1357;-72
2024/02/21 00:38:28;;;;;;;10.23;5.07;;;;;;;;;;610593;23;1563;-72
2024/02/21 00:38:43;;;;;;;10.20;4.90;;;;;;;;;;612923;23;998;-72
2024/02/21 00:38:59;;;;;;;8.60;4.68;;;;;;;;;;613432;23;812;-73
2024/02/21 00:39:14;;;;;;;7.63;4.53;;;;;;;;;;612414;23;765;-72
2024/02/21 00:39:32;;;;;;;8.52;4.60;;;;;;;;;;613175;23;915;-73
2024/02/21 00:39:47;;;;;;;8.55;4.40;;;;;;;;;;609477;23;1161;-73
2024/02/21 00:40:03;;;;;;;9.45;4.43;;;;;;;;;;611781;23;1339;-72
2024/02/21 00:40:20;;;;;;;9.32;4.65;;;;;;;;;;609468;23;1262;-73
2024/02/21 00:40:35;;;;;;;10.45;5.05;;;;;;;;;;609705;23;1252;-72
2024/02/21 00:40:51;;;;;;;10.18;5.00;;;;;;;;;;606092;23;1126;-73
2024/02/21 00:41:06;;;;;;;8.03;4.60;;;;;;;;;;603323;23;1288;-72
2024/02/21 00:41:22;;;;;;;9.00;4.75;;;;;;;;;;603437;23;1385;-72
2024/02/21 00:41:37;;;;;;;9.63;4.90;;;;;;;;;;605972;23;1541;-73
2024/02/21 00:41:53;;;;;;;9.82;4.78;;;;;;;;;;604329;23;1230;-73
2024/02/21 00:42:08;;;;;;;8.88;4.72;;;;;;;;;;604306;23;794;-73
2024/02/21 00:42:24;;;;;;;9.27;4.80;;;;;;;;;;602871;23;1403;-73
2024/02/21 00:42:39;;;;;;;10.57;4.88;;;;;;;;;;607034;23;1222;-73
2024/02/21 00:42:55;;;;;;;10.10;4.80;;;;;;;;;;604370;23;1003;-73
2024/02/21 00:43:11;;;;;;;9.43;4.68;;;;;;;;;;600268;23;1091;-73
2024/02/21 00:43:26;;;;;;;10.80;4.80;;;;;;;;;;604290;23;1201;-72
2024/02/21 00:43:42;;;;;;;11.05;5.00;;;;;;;;;;603943;23;1182;-73
2024/02/21 00:43:57;;;;;;;11.05;5.20;;;;;;;;;;606366;23;1308;-72
2024/02/21 00:44:13;;;;;;;10.20;5.37;;;;;;;;;;606942;23;827;-72
2024/02/21 00:44:28;;;;;;;9.80;5.22;;;;;;;;;;608785;23;1257;-73
2024/02/21 00:44:44;;;;;;;8.70;4.97;;;;;;;;;;609367;23;1202;-73
2024/02/21 00:44:59;;;;;;;8.38;4.68;;;;;;;;;;603516;23;1147;-72
2024/02/21 00:45:15;;;;;;;8.73;4.57;;;;;;;;;;606540;23;1024;-72
2024/02/21 00:45:30;;;;;;;10.45;4.70;;;;;;;;;;607147;23;1275;-73
2024/02/21 00:45:46;;;;;;;11.37;5.03;;;;;;;;;;607723;23;1088;-73
2024/02/21 00:46:01;;;;;;;9.70;5.37;;;;;;;;;;605057;23;956;-73
2024/02/21 00:46:17;;;;;;;8.88;5.20;;;;;;;;;;606753;23;1323;-73
2024/02/21 00:46:32;;;;;;;8.73;5.15;;;;;;;;;;606001;23;1107;-72
2024/02/21 00:46:48;;;;;;;10.20;5.30;;;;;;;;;;602438;23;1403;-73
2024/02/21 00:47:04;;;;;;;9.77;4.93;;;;;;;;;;604826;23;1269;-73
2024/02/21 00:47:19;;;;;;;10.17;5.00;;;;;;;;;;605259;23;812;-72
2024/02/21 00:47:35;;;;;;;10.68;5.18;;;;;;;;;;605554;23;1091;-72
2024/02/21 00:47:50;;;;;;;8.98;4.93;;;;;;;;;;605024;23;856;-72
2024/02/21 00:48:06;;;;;;;10.83;5.30;;;;;;;;;;601806;23;1173;-72
2024/02/21 00:48:22;;;;;;;11.50;5.35;;;;;;;;;;605250;23;1115;-72
2024/02/21 00:48:37;;;;;;;10.05;4.78;;;;;;;;;;606202;23;1278;-72
2024/02/21 00:48:53;;;;;;;9.40;4.70;;;;;;;;;;607610;23;1047;-73
2024/02/21 00:49:08;;;;;;;9.38;4.70;;;;;;;;;;607370;23;800;-72
2024/02/21 00:49:24;;;;;;;9.83;4.70;;;;;;;;;;608373;23;1181;-73
2024/02/21 00:49:39;;;;;;;9.10;4.60;;;;;;;;;;612104;23;998;-73
2024/02/21 00:50:09;;;;;;;9.50;4.57;;;;;;;;;;609663;23;840;-72
2024/02/21 00:50:25;;;;;;;10.73;4.93;;;;;;;;;;607049;23;1256;-73
2024/02/21 00:50:40;;;;;;;9.75;4.85;;;;;;;;;;610489;23;1204;-72
2024/02/21 00:50:56;;;;;;;10.37;4.90;;;;;;;;;;606701;23;1220;-72
2024/02/21 00:51:11;;;;;;;10.05;4.88;;;;;;;;;;606654;23;823;-73
2024/02/21 00:51:27;;;;;;;9.30;4.60;;;;;;;;;;604619;23;1173;-73
2024/02/21 00:51:42;;;;;;;8.77;4.70;;;;;;;;;;606618;23;848;-73
2024/02/21 00:51:58;;;;;;;9.80;4.87;;;;;;;;;;603004;23;1154;-74
2024/02/21 00:52:13;;;;;;;9.60;4.72;;;;;;;;;;601040;23;1154;-72
2024/02/21 00:52:29;;;;;;;9.63;4.80;;;;;;;;;;604581;23;1131;-73
2024/02/21 00:52:44;;;;;;;10.00;4.60;;;;;;;;;;605355;23;1374;-72
2024/02/21 00:53:00;;;;;;;8.70;4.40;;;;;;;;;;603879;23;1140;-72
2024/02/21 00:53:15;;;;;;;10.50;4.75;;;;;;;;;;603318;23;1157;-73
2024/02/21 00:53:31;;;;;;;11.17;5.07;;;;;;;;;;608093;23;1051;-73
2024/02/21 00:53:46;;;;;;;9.75;4.90;;;;;;;;;;603950;23;1177;-72
2024/02/21 00:54:02;;;;;;;9.77;4.80;;;;;;;;;;610856;23;1229;-72
2024/02/21 00:54:17;;;;;;;9.70;4.68;;;;;;;;;;609133;23;902;-72
2024/02/21 00:54:33;;;;;;;8.47;4.40;;;;;;;;;;612602;23;1278;-72
2024/02/21 00:54:49;;;;;;;8.77;4.50;;;;;;;;;;607385;23;1355;-72
2024/02/21 00:55:05;;;;;;;9.40;4.70;;;;;;;;;;606175;23;855;-72
2024/02/21 00:55:20;;;;;;;9.57;4.70;;;;;;;;;;603746;23;1284;-72
2024/02/21 00:55:36;;;;;;;9.87;4.70;;;;;;;;;;608899;23;1252;-73
2024/02/21 00:55:52;;;;;;;10.00;4.97;;;;;;;;;;606864;23;1899;-72
2024/02/21 00:56:07;;;;;;;9.32;4.80;;;;;;;;;;602815;23;1121;-73
2024/02/21 00:56:23;;;;;;;8.70;4.50;;;;;;;;;;600936;23;1181;-73
2024/02/21 00:56:38;;;;;;;8.93;4.68;;;;;;;;;;606498;23;1257;-72
2024/02/21 00:56:54;;;;;;;10.27;4.60;;;;;;;;;;603606;23;1280;-72
2024/02/21 00:57:09;;;;;;;10.52;4.65;;;;;;;;;;603912;23;1325;-73
2024/02/21 00:57:25;;;;;;;10.87;4.80;;;;;;;;;;607961;23;1125;-72
2024/02/21 00:57:40;;;;;;;9.98;4.70;;;;;;;;;;609271;23;1257;-73
2024/02/21 00:57:56;;;;;;;9.77;4.77;;;;;;;;;;607205;23;828;-72
2024/02/21 00:58:11;;;;;;;11.18;5.07;;;;;;;;;;605759;23;1279;-72
2024/02/21 00:58:27;;;;;;;9.68;4.97;;;;;;;;;;603260;23;1355;-72
2024/02/21 00:58:42;;;;;;;8.47;4.80;;;;;;;;;;607663;23;1277;-73
2024/02/21 00:58:58;;;;;;;9.48;4.82;;;;;;;;;;606204;23;793;-72
2024/02/21 00:59:14;;;;;;;10.00;4.77;;;;;;;;;;609376;23;1078;-73
2024/02/21 00:59:29;;;;;;;9.40;4.60;;;;;;;;;;610541;23;1156;-73
2024/02/21 00:59:45;;;;;;;8.87;4.40;;;;;;;;;;613847;23;799;-72
2024/02/21 01:00:01;;;;;;;10.18;4.68;;;;;;;;;;609106;23;1157;-72
2024/02/21 01:00:17;;;;;;;10.25;4.57;;;;;;;;;;606261;23;1094;-73
2024/02/21 01:00:33;;;;;;;9.32;4.50;;;;;;;;;;606811;23;1218;-73
2024/02/21 01:00:48;;;;;;;9.57;4.70;;;;;;;;;;604207;23;1205;-73
2024/02/21 01:01:04;;;;;;;9.52;4.68;;;;;;;;;;606008;23;896;-72
2024/02/21 01:01:23;;;;;;;9.20;4.47;;;;;;;;;;604239;23;1046;-72
2024/02/21 01:01:41;;;;;;;10.73;4.63;;;;;;;;;;605077;23;1102;-73
2024/02/21 01:01:57;;;;;;;11.50;5.00;;;;;;;;;;603221;23;1269;-73
2024/02/21 01:02:12;;;;;;;12.40;5.17;;;;;;;;;;603544;23;1343;-72
2024/02/21 01:02:28;;;;;;;13.95;5.00;;;;;;;;;;601626;23;1297;-74
2024/02/21 01:02:43;;;;;;;11.93;4.53;;;;;;;;;;601598;23;925;-73
2024/02/21 01:02:59;;;;;;;9.65;4.47;;;;;;;;;;602502;23;1190;-72
2024/02/21 01:03:14;;;;;;;10.07;4.90;;;;;;;;;;600457;23;1205;-73
2024/02/21 01:03:30;;;;;;;8.57;4.72;;;;;;;;;;604764;23;1233;-72
2024/02/21 01:03:46;;;;;;;8.90;4.80;;;;;;;;;;604664;23;1304;-73
2024/02/21 01:04:01;;;;;;;9.95;4.72;;;;;;;;;;602163;23;1129;-72
2024/02/21 01:04:17;;;;;;;10.48;4.53;;;;;;;;;;603240;23;1256;-73
2024/02/21 01:04:32;;;;;;;9.93;4.67;;;;;;;;;;601397;23;1326;-72
2024/02/21 01:04:48;;;;;;;8.85;4.75;;;;;;;;;;601234;23;1206;-72
2024/02/21 01:05:04;;;;;;;9.43;4.77;;;;;;;;;;599945;23;1054;-72
2024/02/21 01:05:19;;;;;;;11.18;4.68;;;;;;;;;;600502;23;820;-72
2024/02/21 01:05:35;;;;;;;10.43;4.60;;;;;;;;;;606219;23;836;-73
2024/02/21 01:05:51;;;;;;;9.85;4.68;;;;;;;;;;602985;23;1175;-72
2024/02/21 01:06:06;;;;;;;9.93;4.80;;;;;;;;;;607383;23;1200;-73
2024/02/21 01:06:23;;;;;;;7.95;4.43;;;;;;;;;;609532;23;867;-72
2024/02/21 01:06:38;;;;;;;7.97;4.35;;;;;;;;;;610817;23;1227;-72
2024/02/21 01:06:54;;;;;;;8.02;4.63;;;;;;;;;;609416;23;1328;-72
2024/02/21 01:07:10;;;;;;;8.63;4.50;;;;;;;;;;609615;23;1347;-73
2024/02/21 01:07:25;;;;;;;9.27;4.50;;;;;;;;;;608862;23;847;-72
2024/02/21 01:07:40;;;;;;;8.40;4.27;;;;;;;;;;612350;23;1138;-72
2024/02/21 01:07:56;;;;;;;9.18;4.53;;;;;;;;;;612588;23;1357;-72
2024/02/21 01:08:11;;;;;;;10.27;4.77;;;;;;;;;;611713;23;807;-72
2024/02/21 01:08:27;;;;;;;10.73;4.53;;;;;;;;;;612590;23;1305;-73
2024/02/21 01:08:42;;;;;;;10.23;4.50;;;;;;;;;;612634;23;1093;-73
2024/02/21 01:08:58;;;;;;;10.05;4.32;;;;;;;;;;608792;23;1184;-72
2024/02/21 01:09:14;;;;;;;9.53;4.20;;;;;;;;;;608945;23;846;-72
2024/02/21 01:09:29;;;;;;;8.63;4.38;;;;;;;;;;609532;23;1187;-72
2024/02/21 01:09:45;;;;;;;9.05;4.60;;;;;;;;;;611779;23;919;-72
2024/02/21 01:10:00;;;;;;;10.17;4.93;;;;;;;;;;609087;23;1322;-72
2024/02/21 01:10:16;;;;;;;10.38;4.63;;;;;;;;;;605354;23;1263;-72
2024/02/21 01:10:32;;;;;;;9.48;4.38;;;;;;;;;;607274;23;1489;-73
2024/02/21 01:10:47;;;;;;;9.10;4.40;;;;;;;;;;606092;23;1327;-72
2024/02/21 01:11:03;;;;;;;9.13;4.35;;;;;;;;;;608751;23;1219;-72
2024/02/21 01:11:18;;;;;;;10.23;4.70;;;;;;;;;;608575;23;827;-72
2024/02/21 01:11:34;;;;;;;10.20;4.80;;;;;;;;;;608100;23;1066;-72
2024/02/21 01:11:49;;;;;;;10.23;4.60;;;;;;;;;;604669;23;1088;-72
2024/02/21 01:12:05;;;;;;;10.70;4.65;;;;;;;;;;602837;23;1268;-72
2024/02/21 01:12:21;;;;;;;8.45;4.22;;;;;;;;;;605410;23;1139;-72
2024/02/21 01:12:36;;;;;;;8.40;4.22;;;;;;;;;;604768;23;1460;-72
2024/02/21 01:12:52;;;;;;;9.60;4.40;;;;;;;;;;599779;23;1355;-72
2024/02/21 01:13:07;;;;;;;10.23;4.53;;;;;;;;;;599893;23;1398;-73
2024/02/21 01:13:23;;;;;;;9.67;4.47;;;;;;;;;;603626;23;1197;-72
2024/02/21 01:13:39;;;;;;;9.50;4.43;;;;;;;;;;608630;23;1311;-73
2024/02/21 01:13:55;;;;;;;9.73;4.50;;;;;;;;;;604549;23;1193;-73
2024/02/21 01:14:11;;;;;;;8.13;4.32;;;;;;;;;;606502;23;1289;-72
2024/02/21 01:14:27;;;;;;;8.25;4.50;;;;;;;;;;607331;23;867;-73
2024/02/21 01:14:43;;;;;;;8.18;4.32;;;;;;;;;;607282;23;793;-73
2024/02/21 01:14:58;;;;;;;7.70;3.92;;;;;;;;;;609161;23;1294;-72
2024/02/21 01:15:14;;;;;;;7.17;4.03;;;;;;;;;;607146;23;1268;-72
2024/02/21 01:15:29;;;;;;;8.15;4.40;;;;;;;;;;606430;23;1118;-73
2024/02/21 01:15:45;;;;;;;10.07;4.70;;;;;;;;;;607651;23;1940;-72
2024/02/21 01:16:01;;;;;;;11.30;4.68;;;;;;;;;;609311;23;966;-72
2024/02/21 01:16:16;;;;;;;9.57;4.30;;;;;;;;;;609595;23;1223;-72
2024/02/21 01:16:32;;;;;;;9.88;4.55;;;;;;;;;;608111;23;1204;-73
2024/02/21 01:16:47;;;;;;;11.07;4.87;;;;;;;;;;606043;23;1022;-73
2024/02/21 01:17:03;;;;;;;10.45;4.55;;;;;;;;;;607633;23;816;-72
2024/02/21 01:17:18;;;;;;;10.10;4.60;;;;;;;;;;609533;23;948;-73
2024/02/21 01:17:34;;;;;;;9.43;4.57;;;;;;;;;;608234;23;1089;-72
2024/02/21 01:17:54;;;;;;;8.10;4.07;;;;;;;;;;603479;23;1470;-72
2024/02/21 01:18:09;;;;;;;7.85;3.90;;;;;;;;;;603002;23;836;-73
2024/02/21 01:18:25;;;;;;;9.00;4.13;;;;;;;;;;603451;23;1169;-72
2024/02/21 01:18:41;;;;;;;8.77;4.50;;;;;;;;;;603271;23;1209;-72
2024/02/21 01:18:57;;;;;;;8.73;4.50;;;;;;;;;;606864;23;990;-73
2024/02/21 01:19:12;;;;;;;8.85;4.22;;;;;;;;;;607705;23;1241;-72
2024/02/21 01:19:28;;;;;;;8.67;4.30;;;;;;;;;;608722;23;878;-72
2024/02/21 01:19:46;;;;;;;9.48;4.57;;;;;;;;;;604630;23;1259;-73
2024/02/21 01:20:05;;;;;;;10.80;5.05;;;;;;;;;;603986;23;903;-73
2024/02/21 01:20:21;;;;;;;10.60;4.90;;;;;;;;;;605952;23;1228;-73
2024/02/21 01:20:36;;;;;;;10.07;4.70;;;;;;;;;;608908;23;1098;-73
2024/02/21 01:20:52;;;;;;;9.87;4.43;;;;;;;;;;607155;23;1291;-73
2024/02/21 01:21:09;;;;;;;9.80;4.35;;;;;;;;;;608951;23;1132;-73
2024/02/21 01:21:25;;;;;;;10.23;4.55;;;;;;;;;;606584;23;1461;-72
2024/02/21 01:21:40;;;;;;;11.43;4.80;;;;;;;;;;603435;23;1029;-73
2024/02/21 01:21:56;;;;;;;11.50;4.77;;;;;;;;;;604540;23;1157;-73
2024/02/21 01:22:11;;;;;;;10.65;4.57;;;;;;;;;;604374;23;1181;-72
2024/02/21 01:22:27;;;;;;;9.30;4.33;;;;;;;;;;604448;23;860;-73
2024/02/21 01:22:42;;;;;;;7.80;4.30;;;;;;;;;;605655;23;1081;-72
2024/02/21 01:22:58;;;;;;;7.40;4.33;;;;;;;;;;605009;23;1050;-73
2024/02/21 01:23:13;;;;;;;8.40;4.22;;;;;;;;;;605654;23;1370;-73
2024/02/21 01:23:29;;;;;;;9.70;4.30;;;;;;;;;;605280;23;1244;-73
2024/02/21 01:23:45;;;;;;;10.40;4.40;;;;;;;;;;607102;23;1165;-73
2024/02/21 01:24:00;;;;;;;8.70;4.00;;;;;;;;;;604321;23;789;-73
2024/02/21 01:24:16;;;;;;;8.43;4.00;;;;;;;;;;606345;23;1171;-72
2024/02/21 01:24:31;;;;;;;8.75;4.32;;;;;;;;;;607250;23;1186;-74
2024/02/21 01:24:47;;;;;;;8.43;4.40;;;;;;;;;;606393;23;1042;-72
2024/02/21 01:25:02;;;;;;;8.55;4.53;;;;;;;;;;606232;23;1114;-73
2024/02/21 01:25:18;;;;;;;9.03;4.67;;;;;;;;;;603396;23;1165;-73
2024/02/21 01:25:36;;;;;;;8.75;4.47;;;;;;;;;;605421;23;922;-72
2024/02/21 01:25:51;;;;;;;9.65;4.50;;;;;;;;;;603792;23;1261;-73
2024/02/21 01:26:08;;;;;;;10.53;4.50;;;;;;;;;;600468;23;1229;-73
2024/02/21 01:26:23;;;;;;;10.35;4.40;;;;;;;;;;602256;23;1284;-73
2024/02/21 01:26:39;;;;;;;9.90;4.77;;;;;;;;;;603791;23;859;-73
2024/02/21 01:26:54;;;;;;;9.60;4.78;;;;;;;;;;604182;23;828;-73
2024/02/21 01:27:10;;;;;;;9.20;4.57;;;;;;;;;;604242;23;1211;-73
2024/02/21 01:27:25;;;;;;;9.73;4.43;;;;;;;;;;607707;23;940;-73
2024/02/21 01:27:41;;;;;;;9.13;4.23;;;;;;;;;;608967;23;1212;-73
2024/02/21 01:27:57;;;;;;;8.32;4.20;;;;;;;;;;611604;23;1419;-73
2024/02/21 01:28:12;;;;;;;8.50;4.20;;;;;;;;;;609351;23;1294;-72
2024/02/21 01:28:28;;;;;;;7.93;4.13;;;;;;;;;;608787;23;1252;-72
2024/02/21 01:28:43;;;;;;;9.00;4.13;;;;;;;;;;609532;23;1129;-73
2024/02/21 01:28:59;;;;;;;10.30;4.27;;;;;;;;;;604797;23;1184;-72
2024/02/21 01:29:14;;;;;;;10.05;4.43;;;;;;;;;;604041;23;1033;-72
2024/02/21 01:29:30;;;;;;;10.07;4.43;;;;;;;;;;604887;23;1149;-73
2024/02/21 01:29:47;;;;;;;10.35;4.25;;;;;;;;;;604261;23;1309;-73
2024/02/21 01:30:03;;;;;;;10.18;4.47;;;;;;;;;;608075;23;1343;-73
2024/02/21 01:30:19;;;;;;;8.45;4.15;;;;;;;;;;608043;23;823;-72
2024/02/21 01:30:34;;;;;;;8.63;4.43;;;;;;;;;;610439;23;1351;-73
2024/02/21 01:30:50;;;;;;;9.48;4.63;;;;;;;;;;609014;23;1232;-73
2024/02/21 01:31:05;;;;;;;8.90;4.40;;;;;;;;;;612319;23;976;-73
2024/02/21 01:31:21;;;;;;;9.63;4.50;;;;;;;;;;609618;23;1370;-72
2024/02/21 01:31:37;;;;;;;10.03;4.43;;;;;;;;;;610701;23;899;-73
2024/02/21 01:31:52;;;;;;;9.45;4.35;;;;;;;;;;606664;23;1303;-73
2024/02/21 01:32:08;;;;;;;9.67;4.33;;;;;;;;;;605345;23;1187;-73
2024/02/21 01:32:24;;;;;;;9.60;4.32;;;;;;;;;;607264;23;1267;-73
2024/02/21 01:32:39;;;;;;;9.20;4.20;;;;;;;;;;607219;23;1350;-72
2024/02/21 01:32:55;;;;;;;9.20;4.05;;;;;;;;;;600956;23;1095;-72
2024/02/21 01:33:10;;;;;;;8.77;4.30;;;;;;;;;;601943;23;1057;-73
2024/02/21 01:33:26;;;;;;;9.70;4.38;;;;;;;;;;605323;23;1265;-72
2024/02/21 01:33:42;;;;;;;9.77;4.70;;;;;;;;;;608433;23;1165;-72
2024/02/21 01:33:58;;;;;;;8.73;4.68;;;;;;;;;;607056;23;856;-72
2024/02/21 01:34:13;;;;;;;10.27;4.50;;;;;;;;;;610106;23;1376;-73
2024/02/21 01:34:29;;;;;;;10.57;4.63;;;;;;;;;;604446;23;1088;-72
2024/02/21 01:34:44;;;;;;;9.27;4.30;;;;;;;;;;603400;23;1192;-73
2024/02/21 01:35:00;;;;;;;8.10;3.83;;;;;;;;;;605640;23;1071;-72
2024/02/21 01:35:16;;;;;;;7.40;3.90;;;;;;;;;;605614;23;1177;-72
2024/02/21 01:35:31;;;;;;;7.75;4.20;;;;;;;;;;606467;23;1134;-73
2024/02/21 01:35:47;;;;;;;8.50;4.30;;;;;;;;;;604907;23;2029;-72
2024/02/21 01:36:03;;;;;;;8.60;4.18;;;;;;;;;;604994;23;863;-73
2024/02/21 01:36:18;;;;;;;8.32;4.07;;;;;;;;;;604242;23;1268;-72
2024/02/21 01:36:33;;;;;;;9.00;4.17;;;;;;;;;;607760;23;847;-73
2024/02/21 01:36:49;;;;;;;8.00;4.05;;;;;;;;;;604585;23;844;-72
2024/02/21 01:37:07;;;;;;;7.83;4.23;;;;;;;;;;603417;23;1215;-72